Time;durP1;ratioP1;P1;durP2;ratioP2;P2;SDS_P1;SDS_P2;PMS_P1;PMS_P2;Temp;Humidity;BMP_temperature;BMP_pressure;BME280_temperature;BME280_humidity;BME280_pressure;Samples;Min_cycle;Max_cycle;Signal;HPM_P1;HPM_P2
2023/07/14 00:00:23;;;;;;;4.05;2.05;;;19.20;99.90;;;;;;4980473;28;20027;-67
2023/07/14 00:02:51;;;;;;;11.38;1.80;;;19.20;99.90;;;;;;4979715;28;20026;-67
2023/07/14 00:05:25;;;;;;;4.22;1.33;;;19.10;99.90;;;;;;4979744;28;20034;-67
2023/07/14 00:07:51;;;;;;;7.47;3.22;;;19.10;99.90;;;;;;4980095;28;20027;-67
2023/07/14 00:10:22;;;;;;;13.82;4.65;;;19.10;99.90;;;;;;4979089;28;20030;-67
2023/07/14 00:12:51;;;;;;;8.43;3.30;;;19.10;99.90;;;;;;4980187;28;20030;-67
2023/07/14 00:15:17;;;;;;;4.28;2.10;;;19.10;99.90;;;;;;4979349;28;20019;-67
2023/07/14 00:17:43;;;;;;;2.25;1.52;;;19.10;99.90;;;;;;4979075;28;20037;-67
2023/07/14 00:20:35;;;;;;;3.78;1.70;;;19.10;99.90;;;;;;4979254;28;20026;-67
2023/07/14 00:23:01;;;;;;;5.22;1.50;;;19.00;99.90;;;;;;4975801;28;20034;-67
2023/07/14 00:25:27;;;;;;;3.00;1.95;;;18.90;99.90;;;;;;4979580;28;20109;-67
2023/07/14 00:27:54;;;;;;;1.98;1.63;;;18.80;99.90;;;;;;4979979;28;20069;-67
2023/07/14 00:30:25;;;;;;;2.92;1.50;;;18.60;99.90;;;;;;4979842;28;20093;-67
2023/07/14 00:32:54;;;;;;;3.20;1.73;;;18.40;99.90;;;;;;4979789;28;20058;-67
2023/07/14 00:35:28;;;;;;;3.83;1.60;;;18.30;99.90;;;;;;4979808;28;20046;-67
2023/07/14 00:37:56;;;;;;;5.30;1.80;;;18.20;99.90;;;;;;4978843;28;20022;-67
2023/07/14 00:40:27;;;;;;;8.23;1.77;;;18.20;99.90;;;;;;4979113;28;20087;-67
2023/07/14 00:42:56;;;;;;;2.60;1.90;;;18.20;99.90;;;;;;4978873;28;20034;-67
2023/07/14 00:45:24;;;;;;;3.47;1.55;;;18.20;99.90;;;;;;4978938;28;20117;-67
2023/07/14 00:47:55;;;;;;;3.22;1.80;;;18.20;99.90;;;;;;4979559;28;20037;-67
2023/07/14 00:50:41;;;;;;;3.10;1.70;;;18.20;99.90;;;;;;4979458;28;20031;-67
2023/07/14 00:53:19;;;;;;;3.42;1.75;;;18.20;99.90;;;;;;4979365;28;20117;-67
2023/07/14 00:55:48;;;;;;;5.57;1.67;;;18.10;99.90;;;;;;4979158;28;20063;-67
2023/07/14 00:58:23;;;;;;;4.00;1.95;;;18.20;99.90;;;;;;4978674;28;20023;-67
2023/07/14 01:01:13;;;;;;;2.70;1.77;;;18.20;99.90;;;;;;4979186;28;20023;-67
2023/07/14 01:03:43;;;;;;;3.35;1.65;;;18.20;99.90;;;;;;4979102;28;20038;-67
2023/07/14 01:06:23;;;;;;;3.58;1.70;;;18.30;99.90;;;;;;4979226;28;20026;-67
2023/07/14 01:08:55;;;;;;;4.10;2.38;;;18.30;99.90;;;;;;4979052;28;20081;-67
2023/07/14 01:11:27;;;;;;;4.95;2.08;;;18.00;99.90;;;;;;4978354;28;20038;-67
2023/07/14 01:13:53;;;;;;;2.30;1.70;;;17.90;99.90;;;;;;4977648;28;20053;-67
2023/07/14 01:16:19;;;;;;;7.95;1.77;;;17.80;99.90;;;;;;4978844;28;20077;-67
2023/07/14 01:18:47;;;;;;;2.65;1.30;;;17.90;99.90;;;;;;4978112;28;20031;-67
2023/07/14 01:21:13;;;;;;;5.03;2.20;;;17.90;99.90;;;;;;4977779;28;20027;-67
2023/07/14 01:23:53;;;;;;;2.65;1.67;;;17.90;99.90;;;;;;4978862;28;20055;-67
2023/07/14 01:26:31;;;;;;;5.40;2.38;;;17.80;99.90;;;;;;4977927;28;20030;-67
2023/07/14 01:28:56;;;;;;;4.63;1.80;;;17.90;99.90;;;;;;4978861;28;20097;-67
2023/07/14 01:31:24;;;;;;;6.32;1.98;;;17.90;99.90;;;;;;4978229;28;20031;-67
2023/07/14 01:33:52;;;;;;;3.40;1.88;;;18.00;99.90;;;;;;4977810;28;20042;-67
2023/07/14 01:36:19;;;;;;;4.05;1.90;;;18.00;99.90;;;;;;4978534;28;20050;-67
2023/07/14 01:38:44;;;;;;;4.43;1.73;;;18.00;99.90;;;;;;4978324;28;20019;-67
2023/07/14 01:41:11;;;;;;;3.72;1.60;;;17.90;99.90;;;;;;4978531;28;20019;-67
2023/07/14 01:43:38;;;;;;;5.47;1.95;;;17.70;99.90;;;;;;4978062;28;20035;-67
2023/07/14 01:46:07;;;;;;;2.92;1.70;;;17.60;99.90;;;;;;4976751;28;20027;-67
2023/07/14 01:48:57;;;;;;;3.30;1.90;;;17.50;99.90;;;;;;4977493;28;20035;-67
2023/07/14 01:51:25;;;;;;;5.40;2.05;;;17.60;99.90;;;;;;4976757;28;20098;-67
2023/07/14 01:54:18;;;;;;;2.55;1.85;;;17.60;99.90;;;;;;4978382;28;20034;-67
2023/07/14 01:56:45;;;;;;;9.45;1.90;;;17.40;99.90;;;;;;4977504;28;20023;-67
2023/07/14 01:59:17;;;;;;;2.97;1.83;;;17.20;99.90;;;;;;4977870;28;20029;-67
2023/07/14 02:01:44;;;;;;;7.13;2.63;;;17.00;99.90;;;;;;4977511;28;20045;-67
2023/07/14 02:04:19;;;;;;;4.90;2.00;;;17.10;99.90;;;;;;4977837;28;20033;-67
2023/07/14 02:06:44;;;;;;;3.67;2.17;;;17.20;99.90;;;;;;4981293;28;20030;-68
2023/07/14 02:09:20;;;;;;;5.22;2.00;;;17.10;99.90;;;;;;4978239;28;20030;-68
2023/07/14 02:11:53;;;;;;;7.80;1.67;;;17.00;99.90;;;;;;4977625;28;20034;-69
2023/07/14 02:14:21;;;;;;;8.65;1.70;;;17.10;99.90;;;;;;4981224;28;20034;-69
2023/07/14 02:16:48;;;;;;;3.10;1.90;;;17.10;99.90;;;;;;4977960;28;20023;-69
2023/07/14 02:19:19;;;;;;;2.67;2.03;;;17.10;99.90;;;;;;4977164;28;20030;-69
2023/07/14 02:21:45;;;;;;;3.05;1.80;;;17.20;99.90;;;;;;4978058;28;20023;-69
2023/07/14 02:24:20;;;;;;;6.05;2.10;;;17.20;99.90;;;;;;4977888;28;20027;-69
2023/07/14 02:27:05;;;;;;;5.05;1.88;;;17.10;99.90;;;;;;4977733;28;20057;-69
2023/07/14 02:29:31;;;;;;;4.55;1.95;;;16.90;99.90;;;;;;4977694;28;20027;-69
2023/07/14 02:32:14;;;;;;;6.47;2.33;;;16.80;99.90;;;;;;4978032;28;20019;-69
2023/07/14 02:34:44;;;;;;;3.17;1.98;;;16.80;99.90;;;;;;4983428;28;20030;-69
2023/07/14 02:38:03;;;;;;;4.32;1.85;;;16.80;99.90;;;;;;4981856;28;20035;-69
2023/07/14 02:40:50;;;;;;;4.22;1.98;;;16.90;99.90;;;;;;4907343;29;20032;-69
2023/07/14 02:43:17;;;;;;;4.65;2.00;;;16.80;99.90;;;;;;4907005;29;20056;-69
2023/07/14 02:45:56;;;;;;;5.75;2.10;;;16.90;99.90;;;;;;4906970;29;20042;-69
2023/07/14 02:48:35;;;;;;;3.60;1.67;;;16.80;99.90;;;;;;4907223;29;20028;-69
2023/07/14 02:51:02;;;;;;;4.10;1.90;;;16.80;99.90;;;;;;4907307;29;20060;-69
2023/07/14 02:53:27;;;;;;;6.22;2.08;;;16.90;99.90;;;;;;4907101;29;20056;-69
2023/07/14 02:55:53;;;;;;;3.05;1.98;;;16.90;99.90;;;;;;4907247;29;20020;-70
2023/07/14 02:58:18;;;;;;;7.03;2.03;;;16.90;99.90;;;;;;4906855;29;20036;-70
2023/07/14 03:00:44;;;;;;;3.33;2.05;;;17.00;99.90;;;;;;4907036;29;20027;-70
2023/07/14 03:03:10;;;;;;;6.68;1.85;;;17.00;99.90;;;;;;4906662;29;20035;-70
2023/07/14 03:05:36;;;;;;;2.30;2.10;;;16.80;99.90;;;;;;4907015;29;20059;-70
2023/07/14 03:08:02;;;;;;;3.63;2.00;;;16.70;99.90;;;;;;4906570;29;20054;-69
2023/07/14 03:10:28;;;;;;;3.67;1.67;;;16.70;99.90;;;;;;4927019;28;20084;-69
2023/07/14 03:12:53;;;;;;;4.28;1.85;;;16.70;99.90;;;;;;4980857;28;20035;-69
2023/07/14 03:15:20;;;;;;;4.38;2.05;;;16.70;99.90;;;;;;4980279;28;20026;-70
2023/07/14 03:17:46;;;;;;;3.25;1.88;;;16.70;99.90;;;;;;4980444;28;20035;-70
2023/07/14 03:20:14;;;;;;;2.97;1.88;;;16.70;99.90;;;;;;4980600;28;20023;-70
2023/07/14 03:22:39;;;;;;;4.63;2.00;;;16.60;99.90;;;;;;4980613;28;20027;-70
2023/07/14 03:25:06;;;;;;;3.63;2.15;;;16.60;99.90;;;;;;4980274;28;20110;-70
2023/07/14 03:27:32;;;;;;;4.15;2.38;;;16.30;99.90;;;;;;4980655;28;20081;-70
2023/07/14 03:29:57;;;;;;;5.40;2.15;;;16.30;99.90;;;;;;4981032;28;20019;-70
2023/07/14 03:32:23;;;;;;;5.22;2.25;;;16.40;99.90;;;;;;4980474;28;20135;-70
2023/07/14 03:34:48;;;;;;;3.50;2.25;;;16.40;99.90;;;;;;4980881;28;20112;-69
2023/07/14 03:37:14;;;;;;;3.40;2.03;;;16.30;99.90;;;;;;4979785;28;20121;-69
2023/07/14 03:39:39;;;;;;;5.85;2.55;;;16.40;99.90;;;;;;4978080;28;20033;-69
2023/07/14 03:42:05;;;;;;;6.95;2.13;;;16.40;99.90;;;;;;4979341;28;20039;-69
2023/07/14 03:44:32;;;;;;;3.38;2.22;;;16.40;99.90;;;;;;4979234;28;20117;-69
2023/07/14 03:46:58;;;;;;;3.88;2.15;;;16.50;99.90;;;;;;4980527;28;20023;-69
2023/07/14 03:49:24;;;;;;;3.88;2.35;;;16.60;99.90;;;;;;4980546;28;20033;-69
2023/07/14 03:51:49;;;;;;;2.92;2.40;;;16.70;99.90;;;;;;4980539;28;20030;-69
2023/07/14 03:54:15;;;;;;;3.47;1.98;;;16.70;99.90;;;;;;4980365;28;20027;-69
2023/07/14 03:56:42;;;;;;;3.30;2.10;;;16.60;99.90;;;;;;4979586;28;20019;-69
2023/07/14 03:59:07;;;;;;;4.68;2.28;;;16.60;99.90;;;;;;4980724;28;20027;-69
2023/07/14 04:01:33;;;;;;;3.63;2.05;;;16.60;99.90;;;;;;4980106;28;20113;-69
2023/07/14 04:03:58;;;;;;;4.65;2.40;;;16.50;99.90;;;;;;4980055;28;20095;-69
2023/07/14 04:06:24;;;;;;;3.85;2.42;;;16.50;99.90;;;;;;4980501;28;20026;-69
2023/07/14 04:08:54;;;;;;;5.68;2.70;;;16.60;99.90;;;;;;4979828;28;20034;-69
2023/07/14 04:11:20;;;;;;;3.05;1.83;;;16.70;99.90;;;;;;4979924;28;20030;-69
2023/07/14 04:13:45;;;;;;;5.65;2.42;;;16.70;99.90;;;;;;4979742;28;20027;-69
2023/07/14 04:16:11;;;;;;;5.85;2.85;;;16.70;99.90;;;;;;4979424;28;20097;-69
2023/07/14 04:18:37;;;;;;;5.07;2.45;;;16.70;99.90;;;;;;4980546;28;20037;-68
2023/07/14 04:21:08;;;;;;;4.95;2.00;;;16.70;99.90;;;;;;4979703;28;20054;-68
2023/07/14 04:23:34;;;;;;;5.35;2.33;;;16.70;99.90;;;;;;4979191;28;20026;-68
2023/07/14 04:26:01;;;;;;;6.43;2.30;;;16.70;99.90;;;;;;4979480;28;20022;-68
2023/07/14 04:28:28;;;;;;;5.03;2.15;;;16.70;99.90;;;;;;4979060;28;20031;-68
2023/07/14 04:30:58;;;;;;;4.53;2.28;;;16.80;99.90;;;;;;4978918;28;20074;-68
2023/07/14 04:33:24;;;;;;;3.25;2.05;;;16.80;99.90;;;;;;4979139;28;20026;-68
2023/07/14 04:35:52;;;;;;;11.48;2.72;;;16.80;99.90;;;;;;4979777;28;20031;-68
2023/07/14 04:38:18;;;;;;;3.70;2.53;;;16.80;99.90;;;;;;4979269;28;20023;-68
2023/07/14 04:40:45;;;;;;;3.20;2.30;;;16.70;99.90;;;;;;4979746;28;20023;-68
2023/07/14 04:43:11;;;;;;;3.22;2.22;;;16.70;99.90;;;;;;4979645;28;20027;-68
2023/07/14 04:45:38;;;;;;;7.43;2.47;;;16.70;99.90;;;;;;4979153;28;20114;-68
2023/07/14 04:48:08;;;;;;;3.50;2.33;;;16.70;99.90;;;;;;4979227;28;20033;-68
2023/07/14 04:50:35;;;;;;;10.57;2.53;;;16.60;99.90;;;;;;4979710;28;20034;-68
2023/07/14 04:53:07;;;;;;;3.60;2.22;;;16.60;99.90;;;;;;4978896;28;20031;-68
2023/07/14 04:55:37;;;;;;;4.75;2.22;;;16.60;99.90;;;;;;4979100;28;20054;-68
2023/07/14 04:58:04;;;;;;;4.45;2.35;;;16.60;99.90;;;;;;4978772;28;20041;-68
2023/07/14 05:00:30;;;;;;;3.97;2.15;;;16.60;99.90;;;;;;4978779;28;20117;-68
2023/07/14 05:02:56;;;;;;;3.47;2.33;;;16.70;99.90;;;;;;4978708;28;20065;-68
2023/07/14 05:05:24;;;;;;;4.60;2.30;;;16.70;99.90;;;;;;4978945;28;20024;-68
2023/07/14 05:07:50;;;;;;;4.00;2.67;;;16.80;99.90;;;;;;4978325;28;20034;-68
2023/07/14 05:10:17;;;;;;;6.30;2.22;;;16.90;99.90;;;;;;4978537;28;20077;-68
2023/07/14 05:12:43;;;;;;;3.92;2.53;;;17.00;99.90;;;;;;4978569;28;20027;-68
2023/07/14 05:15:12;;;;;;;5.03;2.17;;;17.10;99.90;;;;;;4978598;28;20030;-68
2023/07/14 05:17:41;;;;;;;3.15;2.60;;;17.10;99.90;;;;;;4978387;28;20034;-68
2023/07/14 05:20:10;;;;;;;4.15;2.20;;;17.20;99.90;;;;;;4978803;28;20023;-68
2023/07/14 05:22:43;;;;;;;2.75;2.30;;;17.30;99.90;;;;;;4978354;28;20023;-68
2023/07/14 05:25:09;;;;;;;9.20;2.38;;;17.30;99.90;;;;;;4977989;28;20034;-68
2023/07/14 05:27:36;;;;;;;2.70;2.10;;;17.40;99.90;;;;;;4977850;28;20027;-68
2023/07/14 05:30:05;;;;;;;4.75;2.50;;;17.40;99.90;;;;;;4978080;28;20034;-68
2023/07/14 05:32:32;;;;;;;4.85;2.40;;;17.40;99.90;;;;;;4978691;28;20023;-68
2023/07/14 05:34:57;;;;;;;9.98;2.45;;;17.40;99.90;;;;;;4978276;28;20037;-68
2023/07/14 05:37:23;;;;;;;3.65;2.20;;;17.40;99.90;;;;;;4977738;28;20022;-68
2023/07/14 05:39:49;;;;;;;4.18;2.30;;;17.50;99.90;;;;;;4977948;28;20074;-68
2023/07/14 05:42:15;;;;;;;6.13;2.22;;;17.60;99.90;;;;;;4978553;28;20023;-68
2023/07/14 05:44:40;;;;;;;4.78;2.03;;;17.60;99.90;;;;;;4978679;28;20085;-68
2023/07/14 05:47:06;;;;;;;6.47;2.13;;;17.70;99.90;;;;;;4978045;28;20027;-68
2023/07/14 05:49:32;;;;;;;5.28;2.63;;;17.60;99.90;;;;;;4978039;28;20034;-68
2023/07/14 05:51:57;;;;;;;6.55;2.30;;;17.70;99.90;;;;;;4977898;28;20065;-68
2023/07/14 05:54:24;;;;;;;5.40;2.75;;;17.80;99.90;;;;;;4978411;28;20086;-68
2023/07/14 05:56:50;;;;;;;2.15;1.92;;;17.90;99.90;;;;;;4977737;28;20027;-68
2023/07/14 05:59:16;;;;;;;5.78;2.25;;;17.90;99.90;;;;;;4977565;28;20019;-68
2023/07/14 06:01:42;;;;;;;3.10;2.20;;;18.00;99.90;;;;;;4976697;28;20026;-68
2023/07/14 06:04:07;;;;;;;9.20;2.38;;;18.00;99.90;;;;;;4975937;28;20031;-68
2023/07/14 06:06:33;;;;;;;4.68;2.08;;;18.10;99.90;;;;;;4975992;28;20050;-68
2023/07/14 06:09:00;;;;;;;3.63;2.10;;;18.30;99.90;;;;;;4978100;28;20105;-68
2023/07/14 06:11:27;;;;;;;10.52;2.75;;;18.20;99.90;;;;;;4977282;28;20131;-68
2023/07/14 06:13:53;;;;;;;3.90;2.10;;;18.20;99.90;;;;;;4978091;28;20186;-68
2023/07/14 06:16:22;;;;;;;5.57;2.30;;;18.10;99.90;;;;;;4977289;28;20026;-68
2023/07/14 06:18:48;;;;;;;4.05;2.47;;;18.10;99.90;;;;;;4977587;28;20141;-69
2023/07/14 06:21:14;;;;;;;4.93;2.20;;;18.20;99.90;;;;;;4977300;28;20026;-68
2023/07/14 06:23:39;;;;;;;4.45;2.33;;;18.40;99.90;;;;;;4977625;28;20033;-68
2023/07/14 06:26:05;;;;;;;4.80;2.40;;;18.30;99.90;;;;;;4977400;28;20027;-68
2023/07/14 06:28:30;;;;;;;3.60;2.05;;;18.40;99.90;;;;;;4977949;28;20097;-68
2023/07/14 06:30:57;;;;;;;2.88;1.90;;;18.50;99.90;;;;;;4977938;28;20037;-68
2023/07/14 06:33:23;;;;;;;4.40;1.98;;;18.50;99.90;;;;;;4977032;28;20030;-68
2023/07/14 06:35:48;;;;;;;3.95;1.98;;;18.70;99.90;;;;;;4977146;28;20049;-68
2023/07/14 06:38:14;;;;;;;7.93;2.83;;;18.60;99.90;;;;;;4977083;28;20019;-68
2023/07/14 06:40:40;;;;;;;10.15;2.08;;;18.60;99.90;;;;;;4977230;28;20023;-68
2023/07/14 06:43:07;;;;;;;5.03;2.70;;;18.70;99.90;;;;;;4977871;28;20030;-68
2023/07/14 06:45:33;;;;;;;5.60;2.85;;;18.90;99.90;;;;;;4978068;28;20027;-68
2023/07/14 06:47:59;;;;;;;5.53;2.10;;;19.10;99.90;;;;;;4976973;28;20030;-68
2023/07/14 06:50:24;;;;;;;5.22;3.20;;;19.20;99.90;;;;;;4976844;28;20027;-68
2023/07/14 06:52:52;;;;;;;6.18;1.85;;;19.30;99.90;;;;;;4977341;28;20030;-68
2023/07/14 06:55:17;;;;;;;3.67;2.35;;;19.60;99.90;;;;;;4977783;28;20047;-68
2023/07/14 06:57:43;;;;;;;9.32;2.85;;;19.60;99.90;;;;;;4977032;28;20027;-68
2023/07/14 07:00:10;;;;;;;7.10;2.05;;;19.70;99.90;;;;;;4977587;28;20075;-68
2023/07/14 07:02:36;;;;;;;5.65;2.05;;;19.40;99.90;;;;;;4977684;28;20026;-68
2023/07/14 07:05:04;;;;;;;7.18;2.05;;;19.30;99.90;;;;;;4977695;28;20031;-68
2023/07/14 07:07:30;;;;;;;5.05;2.00;;;19.40;99.90;;;;;;4976945;28;20077;-68
2023/07/14 07:09:56;;;;;;;3.65;2.00;;;19.50;99.90;;;;;;4976718;28;20023;-68
2023/07/14 07:12:22;;;;;;;6.93;1.90;;;19.60;99.90;;;;;;4977825;28;20073;-68
2023/07/14 07:14:48;;;;;;;5.20;2.35;;;19.40;99.90;;;;;;4977545;28;20026;-68
2023/07/14 07:17:14;;;;;;;3.47;1.70;;;19.50;99.90;;;;;;4976958;28;20074;-68
2023/07/14 07:19:39;;;;;;;5.88;2.67;;;19.70;99.90;;;;;;4978933;28;20027;-68
2023/07/14 07:22:07;;;;;;;5.60;2.10;;;19.80;99.90;;;;;;4980747;28;20050;-68
2023/07/14 07:24:32;;;;;;;7.35;2.00;;;20.00;99.90;;;;;;4980385;28;20037;-68
2023/07/14 07:26:58;;;;;;;5.60;1.90;;;20.10;99.90;;;;;;4980220;28;20052;-68
2023/07/14 07:29:24;;;;;;;11.40;2.92;;;20.30;99.90;;;;;;4980518;28;20152;-68
2023/07/14 07:31:50;;;;;;;4.65;1.63;;;20.20;99.90;;;;;;4980316;28;20019;-68
2023/07/14 07:34:15;;;;;;;4.68;1.65;;;20.20;99.90;;;;;;4980395;28;20037;-68
2023/07/14 07:36:41;;;;;;;2.35;1.40;;;20.30;99.90;;;;;;4980568;28;20023;-68
2023/07/14 07:39:06;;;;;;;6.20;1.98;;;20.50;99.90;;;;;;4980785;28;20066;-68
2023/07/14 07:41:32;;;;;;;7.30;1.70;;;20.80;99.90;;;;;;4980398;28;20023;-68
2023/07/14 07:43:57;;;;;;;4.25;2.05;;;21.00;99.90;;;;;;4980748;28;20031;-68
2023/07/14 07:46:27;;;;;;;4.25;2.10;;;21.10;99.90;;;;;;4980785;28;20026;-68
2023/07/14 07:48:53;;;;;;;5.97;2.10;;;21.00;99.90;;;;;;4980076;28;20022;-68
2023/07/14 07:51:19;;;;;;;4.25;2.10;;;21.00;99.90;;;;;;4979872;28;20031;-68
2023/07/14 07:53:44;;;;;;;4.50;1.60;;;20.90;99.90;;;;;;4980510;28;20027;-68
2023/07/14 07:56:10;;;;;;;6.95;2.40;;;21.00;99.90;;;;;;4979657;28;20031;-68
2023/07/14 07:58:36;;;;;;;1.70;1.60;;;21.10;99.90;;;;;;4979921;28;20027;-68
2023/07/14 08:01:04;;;;;;;5.35;1.73;;;21.20;99.90;;;;;;4980039;28;20022;-69
2023/07/14 08:03:31;;;;;;;7.20;2.03;;;21.30;99.90;;;;;;4979963;28;20031;-68
2023/07/14 08:06:05;;;;;;;4.90;1.77;;;21.60;99.90;;;;;;4980350;28;20027;-68
2023/07/14 08:08:31;;;;;;;6.72;1.98;;;21.70;99.90;;;;;;4979615;28;20037;-68
2023/07/14 08:10:57;;;;;;;3.25;1.60;;;21.80;99.90;;;;;;4979789;28;20027;-68
2023/07/14 08:13:25;;;;;;;7.13;1.98;;;21.80;99.90;;;;;;4979705;28;20034;-68
2023/07/14 08:15:52;;;;;;;7.82;1.88;;;22.00;99.90;;;;;;4979245;28;20019;-68
2023/07/14 08:18:17;;;;;;;4.28;1.65;;;22.20;99.90;;;;;;4979129;28;20038;-68
2023/07/14 08:20:43;;;;;;;3.03;1.48;;;22.10;99.90;;;;;;4979359;28;20045;-68
2023/07/14 08:23:13;;;;;;;1.77;1.30;;;22.10;99.90;;;;;;4979533;28;20019;-68
2023/07/14 08:25:39;;;;;;;3.33;1.60;;;22.20;99.90;;;;;;4979410;28;20031;-68
2023/07/14 08:28:05;;;;;;;3.47;1.70;;;22.20;99.90;;;;;;4979086;28;20030;-68
2023/07/14 08:30:30;;;;;;;2.70;1.50;;;22.30;99.90;;;;;;4979413;28;20027;-68
2023/07/14 08:32:57;;;;;;;2.05;1.08;;;22.40;99.90;;;;;;4979829;28;20034;-68
2023/07/14 08:35:23;;;;;;;5.22;1.48;;;22.50;99.90;;;;;;4980053;28;20023;-68
2023/07/14 08:37:50;;;;;;;2.83;1.60;;;22.60;99.90;;;;;;4979048;28;20027;-68
2023/07/14 08:40:20;;;;;;;1.55;1.20;;;22.70;99.90;;;;;;4980107;28;20025;-68
2023/07/14 08:42:51;;;;;;;6.13;1.30;;;22.60;99.90;;;;;;4980132;28;20027;-68
2023/07/14 08:45:36;;;;;;;;;;;22.50;99.90;;;;;;4979266;28;20022;-68
2023/07/14 08:48:37;;;;;;;5.32;1.25;;;22.70;99.90;;;;;;4978846;28;19913;-68
2023/07/14 08:51:18;;;;;;;7.32;1.55;;;22.80;99.90;;;;;;4979541;28;20027;-69
2023/07/14 08:53:57;;;;;;;;;;;23.00;99.90;;;;;;4979016;28;20098;-69
2023/07/14 08:56:25;;;;;;;7.85;1.30;;;23.10;99.90;;;;;;4978624;28;19988;-68
2023/07/14 08:58:52;;;;;;;2.50;1.23;;;23.30;99.90;;;;;;4978598;28;20018;-68
2023/07/14 09:01:35;;;;;;;6.28;2.42;;;23.70;99.90;;;;;;4979019;28;20023;-68
2023/07/14 09:04:21;;;;;;;3.15;1.40;;;23.80;99.90;;;;;;4979439;28;20034;-68
2023/07/14 09:06:47;;;;;;;3.67;1.35;;;24.00;99.90;;;;;;4978163;28;20041;-68
2023/07/14 09:09:41;;;;;;;4.22;1.42;;;24.00;99.90;;;;;;4978609;28;20121;-68
2023/07/14 09:12:21;;;;;;;12.82;1.92;;;23.70;99.90;;;;;;4979652;28;20029;-68
2023/07/14 09:15:05;;;;;;;4.35;1.77;;;23.90;99.90;;;;;;4979185;28;20030;-68
2023/07/14 09:17:49;;;;;;;3.22;1.23;;;23.90;99.90;;;;;;4979386;28;20031;-69
2023/07/14 09:20:40;;;;;;;2.97;1.35;;;24.10;99.90;;;;;;4979122;28;20015;-68
2023/07/14 09:23:11;;;;;;;3.10;1.10;;;24.40;99.90;;;;;;4979027;28;20023;-68
2023/07/14 09:26:07;;;;;;;2.90;1.50;;;24.10;99.90;;;;;;4978556;28;20027;-68
2023/07/14 09:28:38;;;;;;;3.50;1.30;;;24.10;99.90;;;;;;4979187;28;20182;-68
2023/07/14 09:31:13;;;;;;;8.80;1.33;;;24.40;99.90;;;;;;4978914;28;20030;-68
2023/07/14 09:33:50;;;;;;;2.22;1.27;;;24.50;99.90;;;;;;4977923;28;20066;-68
2023/07/14 09:36:17;;;;;;;4.10;1.60;;;24.40;99.90;;;;;;4977850;28;20019;-68
2023/07/14 09:38:54;;;;;;;4.32;1.52;;;24.30;99.90;;;;;;4977942;28;20023;-68
2023/07/14 09:41:28;;;;;;;7.25;2.28;;;24.10;99.90;;;;;;4977789;28;20022;-68
2023/07/14 09:43:58;;;;;;;4.57;1.13;;;24.20;99.90;;;;;;4977783;28;20026;-68
2023/07/14 09:46:25;;;;;;;4.38;1.60;;;24.20;99.90;;;;;;4978584;28;20034;-68
2023/07/14 09:48:57;;;;;;;1.75;1.63;;;24.20;99.90;;;;;;4977715;28;20022;-68
2023/07/14 09:51:24;;;;;;;1.30;1.00;;;24.10;99.90;;;;;;4977927;28;20026;-69
2023/07/14 09:54:11;;;;;;;3.05;1.75;;;24.10;99.90;;;;;;4977891;28;20030;-68
2023/07/14 09:56:42;;;;;;;7.68;1.50;;;24.20;99.90;;;;;;4978221;28;20023;-68
2023/07/14 09:59:18;;;;;;;2.30;1.20;;;24.20;99.90;;;;;;4978450;28;20050;-68
2023/07/14 10:01:58;;;;;;;3.72;1.33;;;24.10;99.90;;;;;;4978116;28;20027;-68
2023/07/14 10:04:32;;;;;;;4.47;1.38;;;24.00;99.90;;;;;;4977877;28;20031;-68
2023/07/14 10:07:32;;;;;;;4.25;1.55;;;24.10;99.90;;;;;;4977250;28;20027;-68
2023/07/14 10:10:01;;;;;;;3.53;1.23;;;24.50;99.90;;;;;;4977520;28;20026;-68
2023/07/14 10:12:40;;;;;;;3.70;1.30;;;24.80;99.90;;;;;;4977387;28;20122;-68
2023/07/14 10:15:36;;;;;;;2.25;1.20;;;25.00;99.90;;;;;;4978299;28;20125;-68
2023/07/14 10:18:06;;;;;;;6.07;1.58;;;24.90;99.90;;;;;;4983517;23;20113;-66
2023/07/14 10:20:33;;;;;;;3.65;1.70;;;25.10;99.90;;;;;;4997651;28;20109;-66
2023/07/14 10:22:59;;;;;;;5.97;1.52;;;25.30;99.90;;;;;;4996772;28;20026;-66
2023/07/14 10:25:27;;;;;;;5.20;1.80;;;25.50;99.90;;;;;;4996856;28;20029;-66
2023/07/14 10:28:06;;;;;;;6.95;1.73;;;25.60;99.90;;;;;;4996768;28;20022;-66
2023/07/14 10:30:38;;;;;;;7.13;1.80;;;25.20;99.90;;;;;;4997468;28;20081;-66
2023/07/14 10:33:15;;;;;;;4.90;1.40;;;25.10;99.90;;;;;;4996570;28;20049;-66
2023/07/14 10:35:41;;;;;;;4.22;1.55;;;25.40;99.90;;;;;;4996741;28;20113;-66
2023/07/14 10:38:19;;;;;;;7.03;1.83;;;25.50;99.90;;;;;;4997062;28;20092;-66
2023/07/14 10:41:04;;;;;;;2.38;1.23;;;25.70;99.90;;;;;;4997238;28;20054;-65
2023/07/14 10:43:48;;;;;;;5.82;1.65;;;26.30;99.40;;;;;;4996523;28;20117;-66
2023/07/14 10:46:24;;;;;;;4.43;1.63;;;26.50;98.40;;;;;;4997201;28;20035;-66
2023/07/14 10:48:57;;;;;;;4.28;1.50;;;26.70;98.70;;;;;;4996679;28;20033;-66
2023/07/14 10:51:44;;;;;;;2.65;1.30;;;26.80;97.20;;;;;;4996442;28;20031;-66
2023/07/14 10:54:16;;;;;;;6.07;2.08;;;26.40;97.30;;;;;;4997860;28;20030;-66
2023/07/14 10:57:00;;;;;;;5.18;1.38;;;26.20;97.10;;;;;;5001009;28;20022;-66
2023/07/14 10:59:34;;;;;;;6.97;1.80;;;26.20;97.30;;;;;;5001299;28;20053;-66
2023/07/14 11:02:22;;;;;;;4.38;1.70;;;25.90;97.40;;;;;;5001099;28;20019;-66
2023/07/14 11:05:13;;;;;;;7.72;1.70;;;25.50;98.90;;;;;;5000300;28;20026;-65
2023/07/14 11:07:39;;;;;;;2.33;1.17;;;25.50;98.00;;;;;;5001021;28;20033;-66
2023/07/14 11:10:19;;;;;;;3.65;1.67;;;25.70;98.00;;;;;;5000382;28;20034;-65
2023/07/14 11:12:48;;;;;;;4.20;1.60;;;25.80;97.90;;;;;;5001276;28;20026;-65
2023/07/14 11:15:18;;;;;;;9.95;2.15;;;25.40;98.00;;;;;;5000794;28;20055;-66
2023/07/14 11:18:14;;;;;;;6.72;1.85;;;25.50;98.20;;;;;;5000758;28;20026;-66
2023/07/14 11:20:47;;;;;;;4.05;1.42;;;25.70;97.40;;;;;;4999975;28;20018;-66
2023/07/14 11:23:27;;;;;;;5.28;1.58;;;25.70;98.10;;;;;;4999902;28;20060;-66
2023/07/14 11:26:08;;;;;;;2.88;1.48;;;25.80;97.00;;;;;;4999779;28;20030;-66
2023/07/14 11:28:51;;;;;;;5.03;1.50;;;25.50;96.90;;;;;;5000281;28;20022;-65
2023/07/14 11:31:30;;;;;;;6.05;1.77;;;25.30;96.70;;;;;;5000190;28;20030;-65
2023/07/14 11:34:17;;;;;;;3.28;1.52;;;25.10;97.50;;;;;;5000958;28;20019;-65
2023/07/14 11:36:52;;;;;;;4.45;1.42;;;25.10;97.90;;;;;;5000552;28;20109;-65
2023/07/14 11:39:32;;;;;;;2.30;1.10;;;25.20;98.10;;;;;;4999567;28;20026;-66
2023/07/14 11:41:59;;;;;;;2.63;1.45;;;25.50;97.30;;;;;;4999535;28;20113;-65
2023/07/14 11:44:25;;;;;;;6.50;1.23;;;25.70;96.90;;;;;;4999525;28;20094;-66
2023/07/14 11:46:51;;;;;;;4.70;1.80;;;25.80;96.90;;;;;;5000321;28;20034;-66
2023/07/14 11:49:25;;;;;;;2.63;1.40;;;25.80;97.10;;;;;;5000317;28;20104;-65
2023/07/14 11:51:56;;;;;;;3.63;1.50;;;26.10;95.90;;;;;;4998324;28;20085;-66
2023/07/14 11:54:24;;;;;;;;;;;26.80;96.30;;;;;;4998064;28;20037;-66
2023/07/14 11:57:00;;;;;;;6.25;1.73;;;27.50;95.50;;;;;;4997566;28;19906;-66
2023/07/14 11:59:33;;;;;;;3.28;1.60;;;28.30;93.50;;;;;;4999958;28;20109;-66
2023/07/14 12:02:28;;;;;;;7.13;1.70;;;28.00;93.00;;;;;;4999119;28;20022;-65
2023/07/14 12:05:23;;;;;;;11.32;2.30;;;27.90;93.20;;;;;;4998167;28;20030;-66
2023/07/14 12:08:04;;;;;;;7.07;1.70;;;28.30;91.50;;;;;;4990151;28;20037;-66
2023/07/14 12:10:39;;;;;;;4.43;1.50;;;28.10;91.00;;;;;;4999828;28;20077;-65
2023/07/14 12:13:18;;;;;;;2.88;1.80;;;27.90;91.40;;;;;;4998837;28;20081;-65
2023/07/14 12:15:44;;;;;;;4.90;1.55;;;27.60;91.30;;;;;;4998935;28;20026;-66
2023/07/14 12:18:53;;;;;;;6.57;2.00;;;27.20;91.80;;;;;;4998722;28;20094;-66
2023/07/14 12:21:29;;;;;;;15.32;2.17;;;27.20;91.70;;;;;;5000042;28;20018;-66
2023/07/14 12:24:00;;;;;;;4.78;1.30;;;27.00;92.00;;;;;;4998770;28;20045;-66
2023/07/14 12:27:00;;;;;;;7.65;1.58;;;26.70;92.20;;;;;;4998905;28;20098;-66
2023/07/14 12:29:27;;;;;;;2.80;1.50;;;26.80;92.10;;;;;;4999455;28;20026;-65
2023/07/14 12:31:55;;;;;;;7.40;1.60;;;26.60;92.70;;;;;;4999487;28;20026;-66
2023/07/14 12:34:24;;;;;;;6.78;1.77;;;26.70;92.30;;;;;;4998412;28;20037;-66
2023/07/14 12:36:50;;;;;;;3.78;1.70;;;26.70;92.00;;;;;;4998527;28;20185;-66
2023/07/14 12:39:16;;;;;;;3.28;1.42;;;26.80;92.20;;;;;;4999455;28;20050;-66
2023/07/14 12:41:46;;;;;;;5.47;1.70;;;27.10;91.70;;;;;;4998410;28;20026;-66
2023/07/14 12:44:35;;;;;;;2.40;1.25;;;27.60;92.10;;;;;;4999896;28;20026;-66
2023/07/14 12:47:01;;;;;;;3.80;1.77;;;28.40;91.10;;;;;;4998352;28;20038;-66
2023/07/14 12:49:37;;;;;;;6.68;1.58;;;28.50;88.70;;;;;;4998736;28;20030;-65
2023/07/14 12:52:16;;;;;;;4.97;1.25;;;28.50;87.80;;;;;;4998041;28;20030;-66
2023/07/14 12:54:44;;;;;;;6.45;1.60;;;28.60;87.40;;;;;;4999108;28;20072;-65
2023/07/14 12:57:12;;;;;;;4.57;1.30;;;27.70;87.30;;;;;;4998171;28;20057;-65
2023/07/14 12:59:38;;;;;;;4.90;1.70;;;27.10;89.10;;;;;;4998295;28;20019;-66
2023/07/14 13:02:09;;;;;;;7.30;1.75;;;27.20;89.10;;;;;;4998358;28;20076;-65
2023/07/14 13:04:34;;;;;;;;;;;27.50;86.60;;;;;;4998526;28;20093;-66
2023/07/14 13:07:09;;;;;;;1.48;1.27;;;27.90;87.00;;;;;;4998119;28;19949;-66